createdAt,value
2018-06-21T00:01:42.782Z,1.70
2018-06-21T00:04:12.331Z,1.67
2018-06-21T00:06:41.504Z,1.80
2018-06-21T00:09:11.102Z,1.65
2018-06-21T00:11:40.532Z,1.57
2018-06-21T00:14:10.089Z,1.60
2018-06-21T00:16:39.416Z,1.50
2018-06-21T00:19:08.728Z,1.70
2018-06-21T00:21:38.138Z,1.17
2018-06-21T00:24:07.831Z,1.37
2018-06-21T00:26:37.248Z,1.23
2018-06-21T00:29:06.481Z,1.40
2018-06-21T00:31:35.764Z,1.50
2018-06-21T00:34:05.157Z,1.50
2018-06-21T00:36:34.424Z,1.40
2018-06-21T00:39:04.014Z,1.50
2018-06-21T00:41:33.204Z,1.70
2018-06-21T00:44:02.373Z,1.60
2018-06-21T00:46:31.841Z,1.20
2018-06-21T00:49:01.391Z,1.45
2018-06-21T00:51:30.665Z,1.65
2018-06-21T00:54:00.089Z,1.55
2018-06-21T00:56:29.213Z,1.52
2018-06-21T00:58:58.283Z,0.98
2018-06-21T01:01:27.529Z,1.57
2018-06-21T01:03:56.836Z,1.60
2018-06-21T01:06:26.176Z,1.60
2018-06-21T01:08:55.235Z,1.40
2018-06-21T01:11:24.676Z,1.70
2018-06-21T01:13:53.979Z,1.67
2018-06-21T01:16:23.193Z,1.45
2018-06-21T01:18:52.400Z,1.50
2018-06-21T01:21:21.756Z,1.10
2018-06-21T01:23:50.910Z,1.33
2018-06-21T01:26:20.152Z,1.40
2018-06-21T01:28:49.316Z,1.10
2018-06-21T01:31:18.468Z,1.67
2018-06-21T01:33:47.806Z,1.67
2018-06-21T01:36:17.092Z,1.80
2018-06-21T01:38:46.369Z,1.80
2018-06-21T01:41:15.828Z,1.72
2018-06-21T01:43:45.199Z,1.40
2018-06-21T01:46:14.580Z,1.42
2018-06-21T01:48:43.755Z,1.17
2018-06-21T01:51:12.965Z,1.90
2018-06-21T01:53:42.392Z,1.80
2018-06-21T01:56:11.667Z,1.70
2018-06-21T01:58:40.899Z,1.40
2018-06-21T02:01:10.088Z,1.77
2018-06-21T02:03:39.320Z,1.10
2018-06-21T02:06:08.595Z,2.00
2018-06-21T02:08:38.054Z,1.90
2018-06-21T02:11:07.541Z,1.82
2018-06-21T02:13:36.984Z,2.10
2018-06-21T02:16:06.355Z,1.90
2018-06-21T02:18:35.716Z,1.87
2018-06-21T02:21:04.900Z,1.90
2018-06-21T02:23:34.136Z,1.90
2018-06-21T02:26:03.420Z,1.80
2018-06-21T02:28:32.964Z,2.10
2018-06-21T02:31:02.665Z,2.00
2018-06-21T02:33:32.198Z,1.83
2018-06-21T02:36:01.527Z,1.90
2018-06-21T02:38:31.153Z,1.92
2018-06-21T02:41:00.344Z,2.20
2018-06-21T02:43:29.508Z,2.00
2018-06-21T02:45:58.959Z,2.77
2018-06-21T02:48:28.146Z,2.90
2018-06-21T02:50:57.140Z,1.95
2018-06-21T02:53:26.403Z,2.35
2018-06-21T02:55:55.705Z,2.35
2018-06-21T02:58:24.969Z,3.00
2018-06-21T03:00:54.332Z,2.60
2018-06-21T03:03:23.395Z,3.35
2018-06-21T03:05:52.649Z,3.40
2018-06-21T03:08:21.806Z,3.22
2018-06-21T03:10:50.868Z,3.47
2018-06-21T03:13:20.017Z,3.77
2018-06-21T03:15:49.182Z,3.17
2018-06-21T03:18:18.311Z,3.17
2018-06-21T03:20:47.390Z,3.67
2018-06-21T03:23:16.556Z,2.77
2018-06-21T03:25:45.708Z,3.67
2018-06-21T03:28:14.980Z,3.65
2018-06-21T03:30:44.235Z,3.02
2018-06-21T03:33:13.496Z,3.37
2018-06-21T03:35:45.397Z,2.60
2018-06-21T03:38:14.700Z,3.25
2018-06-21T03:40:44.044Z,3.27
2018-06-21T03:43:13.457Z,2.80
2018-06-21T03:45:42.752Z,2.40
2018-06-21T03:48:11.980Z,3.00
2018-06-21T03:50:41.178Z,2.65
2018-06-21T03:53:10.716Z,3.08
2018-06-21T03:55:39.973Z,3.00
2018-06-21T03:58:09.125Z,2.85
2018-06-21T04:00:38.407Z,2.47
2018-06-21T04:03:07.834Z,2.87
2018-06-21T04:05:37.223Z,2.70
2018-06-21T04:08:06.694Z,2.77
2018-06-21T04:10:36.208Z,2.47
2018-06-21T04:13:05.731Z,2.17
2018-06-21T04:15:34.976Z,2.65
2018-06-21T04:18:04.344Z,2.55
2018-06-21T04:20:33.821Z,3.30
2018-06-21T04:23:03.346Z,3.08
2018-06-21T04:25:33.010Z,2.60
2018-06-21T04:28:02.436Z,2.83
2018-06-21T04:30:31.892Z,2.55
2018-06-21T04:33:01.509Z,3.27
2018-06-21T04:35:30.766Z,4.20
2018-06-21T04:38:00.249Z,3.65
2018-06-21T04:40:29.696Z,4.15
2018-06-21T04:42:58.996Z,3.60
2018-06-21T04:45:28.324Z,3.40
2018-06-21T04:47:57.368Z,3.50
2018-06-21T04:50:26.635Z,3.37
2018-06-21T04:52:55.911Z,3.80
2018-06-21T04:55:25.369Z,3.50
2018-06-21T04:57:54.421Z,4.43
2018-06-21T05:00:23.501Z,5.10
2018-06-21T05:02:52.841Z,4.00
2018-06-21T05:05:22.516Z,4.35
2018-06-21T05:07:51.678Z,4.05
2018-06-21T05:10:20.921Z,4.40
2018-06-21T05:12:50.192Z,4.80
2018-06-21T05:15:19.556Z,4.58
2018-06-21T05:17:48.812Z,4.65
2018-06-21T05:20:18.068Z,4.37
2018-06-21T05:22:47.256Z,4.90
2018-06-21T05:25:16.486Z,4.40
2018-06-21T05:27:45.800Z,4.77
2018-06-21T05:30:14.904Z,4.22
2018-06-21T05:32:44.092Z,5.22
2018-06-21T05:35:13.389Z,3.08
2018-06-21T05:37:42.871Z,4.40
2018-06-21T05:40:42.492Z,5.10
2018-06-21T05:43:11.660Z,4.70
2018-06-21T05:45:40.915Z,4.85
2018-06-21T05:48:10.056Z,4.53
2018-06-21T05:50:39.300Z,4.60
2018-06-21T05:53:08.581Z,4.20
2018-06-21T05:55:37.945Z,4.05
2018-06-21T05:58:07.123Z,3.93
2018-06-21T06:00:36.325Z,3.70
2018-06-21T06:03:05.529Z,3.33
2018-06-21T06:05:34.942Z,3.58
2018-06-21T06:08:04.496Z,3.75
2018-06-21T06:10:33.764Z,3.80
2018-06-21T06:13:03.136Z,3.40
2018-06-21T06:15:32.287Z,3.50
2018-06-21T06:18:01.566Z,3.40
2018-06-21T06:20:30.821Z,3.40
2018-06-21T06:23:00.085Z,3.10
2018-06-21T06:25:29.380Z,3.20
2018-06-21T06:27:58.587Z,3.10
2018-06-21T06:30:27.876Z,2.90
2018-06-21T06:32:57.323Z,2.98
2018-06-21T06:35:30.421Z,2.97
2018-06-21T06:38:00.837Z,3.03
2018-06-21T06:40:30.388Z,3.15
2018-06-21T06:42:59.602Z,2.65
2018-06-21T06:45:28.840Z,3.10
2018-06-21T06:47:58.010Z,3.23
2018-06-21T06:50:27.189Z,3.20
2018-06-21T06:52:56.540Z,2.80
2018-06-21T06:55:25.796Z,2.80
2018-06-21T06:57:55.164Z,2.45
2018-06-21T07:00:24.137Z,3.10
2018-06-21T07:02:53.573Z,3.12
2018-06-21T07:05:22.740Z,2.80
2018-06-21T07:07:52.035Z,2.42
2018-06-21T07:10:22.148Z,2.40
2018-06-21T07:12:51.544Z,2.47
2018-06-21T07:15:20.729Z,2.50
2018-06-21T07:17:50.070Z,2.30
2018-06-21T07:20:19.174Z,2.58
2018-06-21T07:22:48.640Z,2.17
2018-06-21T07:25:17.912Z,2.55
2018-06-21T07:27:47.190Z,2.35
2018-06-21T07:30:16.412Z,2.27
2018-06-21T07:32:45.498Z,1.90
2018-06-21T07:35:14.831Z,1.90
2018-06-21T07:37:44.044Z,1.70
2018-06-21T07:40:13.449Z,1.20
2018-06-21T07:42:42.693Z,1.00
2018-06-21T07:45:11.911Z,1.00
2018-06-21T07:47:41.214Z,1.10
2018-06-21T07:50:10.512Z,1.00
2018-06-21T07:52:40.029Z,0.90
2018-06-21T07:55:09.461Z,1.10
2018-06-21T07:57:38.761Z,1.10
2018-06-21T08:00:08.082Z,0.80
2018-06-21T08:02:37.142Z,1.10
2018-06-21T08:05:06.473Z,1.10
2018-06-21T08:07:35.887Z,1.00
2018-06-21T08:10:05.527Z,0.90
2018-06-21T08:12:34.701Z,1.00
2018-06-21T08:15:04.376Z,1.10
2018-06-21T08:17:33.872Z,0.80
2018-06-21T08:20:03.497Z,1.00
2018-06-21T08:22:32.817Z,1.00
2018-06-21T08:25:02.205Z,1.10
2018-06-21T08:27:31.608Z,0.88
2018-06-21T08:30:00.844Z,0.90
2018-06-21T08:32:30.257Z,0.80
2018-06-21T08:34:59.556Z,1.30
2018-06-21T08:37:28.785Z,1.12
2018-06-21T08:39:58.180Z,1.00
2018-06-21T08:42:27.608Z,1.20
2018-06-21T08:44:56.912Z,1.00
2018-06-21T08:47:26.249Z,0.90
2018-06-21T08:49:55.519Z,1.00
2018-06-21T08:52:25.176Z,0.90
2018-06-21T08:54:54.551Z,1.10
2018-06-21T08:57:23.705Z,1.10
2018-06-21T08:59:53.000Z,0.90
2018-06-21T09:02:22.331Z,0.98
2018-06-21T09:04:51.810Z,1.20
2018-06-21T09:07:20.942Z,0.90
2018-06-21T09:09:50.322Z,1.10
2018-06-21T09:12:19.551Z,1.10
2018-06-21T09:14:49.300Z,1.10
2018-06-21T09:17:18.716Z,0.80
2018-06-21T09:19:47.900Z,1.00
2018-06-21T09:22:17.356Z,1.10
2018-06-21T09:24:46.488Z,1.00
2018-06-21T09:27:15.857Z,0.80
2018-06-21T09:29:45.160Z,1.02
2018-06-21T09:32:14.576Z,0.90
2018-06-21T09:34:43.907Z,1.00
2018-06-21T09:37:13.387Z,0.67
2018-06-21T09:39:47.720Z,0.78
2018-06-21T09:42:22.250Z,1.17
2018-06-21T09:44:56.704Z,0.80
2018-06-21T09:47:31.056Z,1.05
2018-06-21T09:50:00.560Z,0.80
2018-06-21T09:52:29.905Z,0.90
2018-06-21T09:54:59.170Z,0.88
2018-06-21T09:57:28.448Z,0.90
2018-06-21T09:59:57.812Z,1.10
2018-06-21T10:02:26.977Z,0.90
2018-06-21T10:04:56.116Z,1.07
2018-06-21T10:07:25.116Z,0.90
2018-06-21T10:09:54.331Z,1.17
2018-06-21T10:12:23.604Z,1.22
2018-06-21T10:14:52.642Z,0.93
2018-06-21T10:17:21.983Z,1.10
2018-06-21T10:19:51.440Z,1.02
2018-06-21T10:22:20.926Z,1.40
2018-06-21T10:24:50.121Z,1.10
2018-06-21T10:27:19.499Z,1.00
2018-06-21T10:29:48.664Z,1.20
2018-06-21T10:32:17.684Z,1.27
2018-06-21T10:34:46.903Z,1.10
2018-06-21T10:37:16.016Z,1.30
2018-06-21T10:39:45.563Z,1.02
2018-06-21T10:42:15.002Z,1.05
2018-06-21T10:44:44.360Z,1.10
2018-06-21T10:47:13.418Z,1.07
2018-06-21T10:49:42.686Z,1.30
2018-06-21T10:52:12.137Z,1.15
2018-06-21T10:54:41.308Z,0.90
2018-06-21T10:57:10.674Z,0.93
2018-06-21T10:59:39.945Z,0.90
2018-06-21T11:02:09.392Z,1.00
2018-06-21T11:04:38.736Z,1.10
2018-06-21T11:07:08.036Z,0.90
2018-06-21T11:09:37.328Z,0.95
2018-06-21T11:12:06.706Z,0.93
2018-06-21T11:14:35.555Z,1.00
2018-06-21T11:17:05.068Z,1.03
2018-06-21T11:19:34.413Z,0.90
2018-06-21T11:22:04.024Z,1.17
2018-06-21T11:24:33.193Z,0.95
2018-06-21T11:27:02.192Z,1.07
2018-06-21T11:29:31.237Z,1.00
2018-06-21T11:32:00.420Z,1.00
2018-06-21T11:34:29.755Z,0.80
2018-06-21T11:36:59.048Z,1.00
2018-06-21T11:39:28.288Z,0.87
2018-06-21T11:41:57.385Z,0.80
2018-06-21T11:44:26.816Z,0.80
2018-06-21T11:46:56.211Z,0.80
2018-06-21T11:49:25.424Z,0.93
2018-06-21T11:51:54.611Z,1.20
2018-06-21T11:54:23.954Z,0.88
2018-06-21T11:56:53.240Z,0.70
2018-06-21T11:59:22.589Z,0.85
2018-06-21T12:01:51.789Z,0.70
2018-06-21T12:04:21.299Z,0.88
2018-06-21T12:06:51.017Z,0.93
2018-06-21T12:09:20.381Z,1.10
2018-06-21T12:11:49.641Z,1.20
2018-06-21T12:14:19.097Z,0.83
2018-06-21T12:16:48.332Z,0.93
2018-06-21T12:19:17.719Z,1.10
2018-06-21T12:21:47.157Z,0.90
2018-06-21T12:24:16.424Z,0.80
2018-06-21T12:26:45.962Z,1.00
2018-06-21T12:29:15.418Z,1.20
2018-06-21T12:31:45.070Z,1.00
2018-06-21T12:34:14.310Z,1.10
2018-06-21T12:36:43.505Z,1.00
2018-06-21T12:39:12.676Z,0.85
2018-06-21T12:41:42.032Z,1.02
2018-06-21T12:44:11.214Z,1.47
2018-06-21T12:46:40.349Z,1.20
2018-06-21T12:49:09.532Z,0.80
2018-06-21T12:51:38.772Z,1.00
2018-06-21T12:54:07.945Z,1.07
2018-06-21T12:56:37.181Z,1.20
2018-06-21T12:59:06.504Z,1.00
2018-06-21T13:01:35.913Z,1.10
2018-06-21T13:04:05.224Z,1.10
2018-06-21T13:06:34.532Z,1.10
2018-06-21T13:09:14.704Z,1.27
2018-06-21T13:12:53.633Z,1.00
2018-06-21T13:15:22.991Z,1.20
2018-06-21T13:17:52.240Z,1.10
2018-06-21T13:20:21.361Z,1.20
2018-06-21T13:22:50.682Z,1.20
2018-06-21T13:25:19.756Z,1.17
2018-06-21T13:27:48.996Z,1.30
2018-06-21T13:30:18.186Z,1.15
2018-06-21T13:32:47.648Z,1.10
2018-06-21T13:35:16.922Z,1.20
2018-06-21T13:37:46.161Z,1.10
2018-06-21T13:40:15.333Z,1.12
2018-06-21T13:42:44.599Z,1.20
2018-06-21T13:45:13.860Z,1.20
2018-06-21T13:47:43.241Z,1.20
2018-06-21T13:50:12.449Z,1.22
2018-06-21T13:52:41.828Z,1.00
2018-06-21T13:55:11.281Z,1.20
2018-06-21T13:57:40.524Z,1.20
2018-06-21T14:00:09.784Z,1.12
2018-06-21T14:02:39.040Z,1.73
2018-06-21T14:05:08.296Z,1.27
2018-06-21T14:07:37.652Z,1.22
2018-06-21T14:10:07.366Z,1.27
2018-06-21T14:12:36.648Z,1.20
2018-06-21T14:15:06.179Z,1.40
2018-06-21T14:17:35.348Z,0.98
2018-06-21T14:20:04.682Z,1.22
2018-06-21T14:22:33.758Z,1.20
2018-06-21T14:25:02.803Z,1.00
2018-06-21T14:27:31.965Z,1.30
2018-06-21T14:30:01.243Z,1.30
2018-06-21T14:32:30.428Z,1.00
2018-06-21T14:34:59.644Z,0.95
2018-06-21T14:37:28.921Z,1.15
2018-06-21T14:39:58.357Z,1.17
2018-06-21T14:42:27.588Z,1.00
2018-06-21T14:44:56.792Z,1.05
2018-06-21T14:47:26.000Z,1.20
2018-06-21T14:49:55.285Z,1.40
2018-06-21T14:52:24.819Z,1.42
2018-06-21T14:54:53.988Z,1.30
2018-06-21T14:57:23.241Z,1.20
2018-06-21T14:59:52.464Z,1.35
2018-06-21T15:02:21.869Z,1.20
2018-06-21T15:04:51.080Z,1.20
2018-06-21T15:07:20.492Z,1.23
2018-06-21T15:09:49.660Z,1.00
2018-06-21T15:12:19.017Z,1.25
2018-06-21T15:14:48.417Z,1.25
2018-06-21T15:17:17.725Z,1.00
2018-06-21T15:19:47.056Z,1.00
2018-06-21T15:22:16.389Z,1.00
2018-06-21T15:24:45.545Z,1.15
2018-06-21T15:27:14.913Z,1.02
2018-06-21T15:29:44.208Z,1.10
2018-06-21T15:32:13.304Z,0.95
2018-06-21T15:34:42.377Z,1.20
2018-06-21T15:37:11.621Z,0.90
2018-06-21T15:39:40.800Z,0.90
2018-06-21T15:42:10.051Z,1.10
2018-06-21T15:44:39.367Z,1.20
2018-06-21T15:47:08.640Z,1.00
2018-06-21T15:49:37.989Z,1.10
2018-06-21T15:52:07.378Z,1.00
2018-06-21T15:54:36.612Z,1.10
2018-06-21T15:57:05.881Z,1.10
2018-06-21T15:59:35.129Z,1.00
2018-06-21T16:02:04.536Z,1.10
2018-06-21T16:04:34.448Z,1.00
2018-06-21T16:07:03.877Z,1.10
2018-06-21T16:09:33.204Z,1.17
2018-06-21T16:12:02.448Z,1.07
2018-06-21T16:14:31.647Z,1.20
2018-06-21T16:17:01.609Z,1.00
2018-06-21T16:19:31.078Z,0.90
2018-06-21T16:22:00.498Z,1.02
2018-06-21T16:24:29.804Z,1.20
2018-06-21T16:26:59.016Z,1.10
2018-06-21T16:29:28.321Z,1.00
2018-06-21T16:31:57.487Z,1.30
2018-06-21T16:34:26.632Z,1.27
2018-06-21T16:36:55.800Z,1.10
2018-06-21T16:39:25.064Z,1.07
2018-06-21T16:41:54.234Z,0.90
2018-06-21T16:44:23.330Z,1.20
2018-06-21T16:46:52.572Z,1.02
2018-06-21T16:49:21.993Z,1.07
2018-06-21T16:51:51.209Z,0.80
2018-06-21T16:54:20.293Z,1.20
2018-06-21T16:56:49.765Z,1.20
2018-06-21T16:59:19.069Z,1.00
2018-06-21T17:01:48.569Z,1.20
2018-06-21T17:04:17.719Z,1.10
2018-06-21T17:06:47.093Z,1.03
2018-06-21T17:09:16.147Z,1.12
2018-06-21T17:11:45.286Z,1.10
2018-06-21T17:14:14.360Z,0.90
2018-06-21T17:16:43.608Z,0.90
2018-06-21T17:19:13.034Z,0.90
2018-06-21T17:21:42.236Z,1.00
2018-06-21T17:24:11.404Z,0.90
2018-06-21T17:26:40.765Z,1.00
2018-06-21T17:29:09.932Z,1.00
2018-06-21T17:31:39.297Z,0.98
2018-06-21T17:34:08.669Z,1.15
2018-06-21T17:36:38.139Z,0.90
2018-06-21T17:39:09.366Z,1.20
2018-06-21T17:41:38.664Z,1.10
2018-06-21T17:44:07.890Z,1.10
2018-06-21T17:46:37.317Z,1.10
2018-06-21T17:49:06.616Z,0.98
2018-06-21T17:51:35.795Z,1.00
2018-06-21T17:54:05.049Z,1.05
2018-06-21T17:56:34.256Z,1.00
2018-06-21T17:59:03.448Z,1.33
2018-06-21T18:01:32.539Z,1.10
2018-06-21T18:04:01.768Z,1.20
2018-06-21T18:06:31.504Z,1.00
2018-06-21T18:09:00.724Z,0.70
2018-06-21T18:11:29.800Z,0.80
2018-06-21T18:13:59.132Z,0.90
2018-06-21T18:16:28.457Z,1.00
2018-06-21T18:18:57.885Z,1.15
2018-06-21T18:21:27.241Z,1.10
2018-06-21T18:23:56.612Z,1.20
2018-06-21T18:26:26.004Z,1.00
2018-06-21T18:28:55.344Z,1.10
2018-06-21T18:31:24.712Z,1.00
2018-06-21T18:33:54.160Z,1.00
2018-06-21T18:36:23.464Z,1.13
2018-06-21T18:38:52.549Z,0.90
2018-06-21T18:41:21.988Z,0.90
2018-06-21T18:43:51.365Z,1.20
2018-06-21T18:46:20.805Z,1.10
2018-06-21T18:48:50.121Z,1.10
2018-06-21T18:51:19.449Z,1.32
2018-06-21T18:53:48.916Z,1.07
2018-06-21T18:56:18.576Z,1.00
2018-06-21T18:58:48.007Z,1.10
2018-06-21T19:01:16.918Z,0.90
2018-06-21T19:03:46.227Z,1.20
2018-06-21T19:06:21.077Z,1.20
2018-06-21T19:08:55.292Z,1.17
2018-06-21T19:11:29.601Z,1.02
2018-06-21T19:13:58.887Z,1.10
2018-06-21T19:16:28.384Z,1.10
2018-06-21T19:18:57.644Z,1.30
2018-06-21T19:21:27.168Z,1.20
2018-06-21T19:23:56.754Z,1.17
2018-06-21T19:26:26.274Z,1.35
2018-06-21T19:28:55.362Z,1.20
2018-06-21T19:31:24.396Z,1.20
2018-06-21T19:33:53.691Z,1.20
2018-06-21T19:36:23.112Z,1.40
2018-06-21T19:38:52.722Z,1.07
2018-06-21T19:41:23.216Z,1.15
2018-06-21T19:43:52.749Z,1.40
2018-06-21T19:46:22.558Z,1.20
2018-06-21T19:48:52.226Z,1.37
2018-06-21T19:51:21.714Z,1.30
2018-06-21T19:53:51.119Z,1.35
2018-06-21T19:56:20.720Z,1.27
2018-06-21T19:58:50.095Z,1.20
2018-06-21T20:01:19.707Z,1.40
2018-06-21T20:03:49.050Z,1.30
2018-06-21T20:06:18.224Z,1.30
2018-06-21T20:08:47.472Z,1.40
2018-06-21T20:11:22.036Z,1.30
2018-06-21T20:13:52.672Z,1.20
2018-06-21T20:16:22.245Z,1.33
2018-06-21T20:18:51.629Z,1.20
2018-06-21T20:21:21.577Z,1.30
2018-06-21T20:23:52.048Z,1.40
2018-06-21T20:26:22.065Z,1.40
2018-06-21T20:28:51.552Z,1.27
2018-06-21T20:31:21.066Z,1.27
2018-06-21T20:33:50.378Z,1.20
2018-06-21T20:36:23.911Z,1.20
2018-06-21T20:38:53.356Z,1.57
2018-06-21T20:41:22.878Z,1.25
2018-06-21T20:43:52.590Z,1.30
2018-06-21T20:46:22.212Z,1.50
2018-06-21T20:48:51.581Z,1.50
2018-06-21T20:51:21.018Z,1.40
2018-06-21T20:53:50.308Z,1.12
2018-06-21T20:56:19.630Z,1.20
2018-06-21T20:58:49.071Z,1.30
2018-06-21T21:01:18.392Z,1.20
2018-06-21T21:03:47.668Z,1.20
2018-06-21T21:06:17.016Z,1.27
2018-06-21T21:08:46.148Z,1.25
2018-06-21T21:11:15.654Z,1.20
2018-06-21T21:13:44.956Z,1.42
2018-06-21T21:16:14.053Z,1.20
2018-06-21T21:18:43.119Z,1.20
2018-06-21T21:21:12.667Z,1.02
2018-06-21T21:23:41.961Z,1.40
2018-06-21T21:26:11.120Z,1.17
2018-06-21T21:28:40.449Z,1.30
2018-06-21T21:31:09.642Z,1.30
2018-06-21T21:33:38.908Z,1.40
2018-06-21T21:36:08.141Z,1.37
2018-06-21T21:38:37.214Z,1.45
2018-06-21T21:41:06.460Z,1.50
2018-06-21T21:43:35.740Z,1.50
2018-06-21T21:46:05.096Z,1.53
2018-06-21T21:48:34.264Z,1.42
2018-06-21T21:51:03.628Z,1.12
2018-06-21T21:53:32.948Z,1.40
2018-06-21T21:56:02.157Z,1.50
2018-06-21T21:58:31.352Z,1.55
2018-06-21T22:01:00.591Z,1.60
2018-06-21T22:03:29.874Z,1.22
2018-06-21T22:05:59.036Z,1.47
2018-06-21T22:08:28.390Z,1.40
2018-06-21T22:10:57.716Z,1.70
2018-06-21T22:13:26.928Z,1.40
2018-06-21T22:15:56.221Z,1.70
2018-06-21T22:18:26.459Z,1.50
2018-06-21T22:20:55.784Z,1.30
2018-06-21T22:23:25.331Z,1.50
2018-06-21T22:25:54.493Z,1.60
2018-06-21T22:28:23.934Z,1.70
2018-06-21T22:30:53.218Z,1.37
2018-06-21T22:33:22.662Z,1.60
2018-06-21T22:35:51.938Z,1.60
2018-06-21T22:38:21.187Z,1.40
2018-06-21T22:40:50.365Z,1.53
2018-06-21T22:43:19.696Z,1.80
2018-06-21T22:45:48.752Z,1.80
2018-06-21T22:48:18.124Z,1.57
2018-06-21T22:50:47.173Z,1.80
2018-06-21T22:53:16.324Z,1.80
2018-06-21T22:55:45.636Z,1.57
2018-06-21T22:58:15.083Z,1.70
2018-06-21T23:00:44.353Z,1.80
2018-06-21T23:03:13.532Z,1.60
2018-06-21T23:05:42.686Z,1.60
2018-06-21T23:08:11.748Z,1.70
2018-06-21T23:10:41.200Z,1.47
2018-06-21T23:13:10.269Z,1.92
2018-06-21T23:15:39.481Z,1.50
2018-06-21T23:18:08.597Z,1.72
2018-06-21T23:20:37.944Z,1.60
2018-06-21T23:23:07.013Z,1.87
2018-06-21T23:25:36.145Z,1.50
2018-06-21T23:28:05.449Z,1.70
2018-06-21T23:30:34.779Z,1.60
2018-06-21T23:33:03.856Z,1.52
2018-06-21T23:35:33.203Z,1.52
2018-06-21T23:38:02.281Z,1.75
2018-06-21T23:40:31.612Z,1.80
2018-06-21T23:43:00.680Z,1.70
2018-06-21T23:45:30.022Z,1.80
2018-06-21T23:47:59.204Z,2.02
2018-06-21T23:50:28.516Z,1.50
2018-06-21T23:52:58.089Z,1.87
2018-06-21T23:55:27.296Z,2.10
2018-06-21T23:57:56.598Z,1.52
